Terminal Aerodrome Forecast
Issued by NWS Wilmington, OH

Current Version | Previous Version | Text Only | Print | Product List | Glossary Off
Versions: 1 2 3 4 5 6 7 8 9 10 11 12 13 14 15 16 17 18 19 20 21 22 23 24 25 26 27 28 29 30 31

000
FTUS41 KILN 280202 AAA
TAFCVG
TAF AMD
KCVG 280202Z 2802/2906 07005KT P6SM FEW045 BKN250
     FM280600 07003KT 5SM BR FEW040 BKN250
     FM280900 VRB03KT 1SM BR SCT250
     FM281300 10005KT P6SM SCT250
     FM281700 12006KT P6SM VCSH FEW025 BKN040
     FM290000 VRB04KT P6SM FEW040 SCT250=

USA.gov is the U.S. government's official web portal to all federal, state and local government web resources and services.